sensor_id;sensor_type;location;lat;lon;timestamp;temperature;humidity
22065;DHT22;11197;53.110;8.468;2022-09-09T00:00:18;15.90;99.90
22065;DHT22;11197;53.110;8.468;2022-09-09T00:02:55;15.90;99.90
22065;DHT22;11197;53.110;8.468;2022-09-09T00:09:13;15.80;99.90
22065;DHT22;11197;53.110;8.468;2022-09-09T00:11:40;15.80;99.90
22065;DHT22;11197;53.110;8.468;2022-09-09T00:16:47;15.80;99.90
22065;DHT22;11197;53.110;8.468;2022-09-09T00:19:41;15.80;99.90
22065;DHT22;11197;53.110;8.468;2022-09-09T00:22:17;15.70;99.90
22065;DHT22;11197;53.110;8.468;2022-09-09T00:24:46;15.70;99.90
22065;DHT22;11197;53.110;8.468;2022-09-09T00:32:41;15.70;99.90
22065;DHT22;11197;53.110;8.468;2022-09-09T00:35:29;15.60;99.90
22065;DHT22;11197;53.110;8.468;2022-09-09T00:38:01;15.70;99.90
22065;DHT22;11197;53.110;8.468;2022-09-09T00:40:39;15.60;99.90
22065;DHT22;11197;53.110;8.468;2022-09-09T00:46:05;15.60;99.90
22065;DHT22;11197;53.110;8.468;2022-09-09T00:49:45;15.60;99.90
22065;DHT22;11197;53.110;8.468;2022-09-09T01:05:11;15.40;99.90
22065;DHT22;11197;53.110;8.468;2022-09-09T01:07:40;15.40;99.90
22065;DHT22;11197;53.110;8.468;2022-09-09T01:10:27;15.40;99.90
22065;DHT22;11197;53.110;8.468;2022-09-09T01:12:56;15.40;99.90
22065;DHT22;11197;53.110;8.468;2022-09-09T01:15:27;15.40;99.90
22065;DHT22;11197;53.110;8.468;2022-09-09T01:20:49;15.40;99.90
22065;DHT22;11197;53.110;8.468;2022-09-09T01:28:56;15.40;99.90
22065;DHT22;11197;53.110;8.468;2022-09-09T01:34:14;15.40;99.90
22065;DHT22;11197;53.110;8.468;2022-09-09T01:39:07;15.30;99.90
22065;DHT22;11197;53.110;8.468;2022-09-09T01:41:33;15.30;99.90
22065;DHT22;11197;53.110;8.468;2022-09-09T01:44:07;15.30;99.90
22065;DHT22;11197;53.110;8.468;2022-09-09T01:46:35;15.30;99.90
22065;DHT22;11197;53.110;8.468;2022-09-09T01:49:05;15.30;99.90
22065;DHT22;11197;53.110;8.468;2022-09-09T01:51:33;15.30;99.90
22065;DHT22;11197;53.110;8.468;2022-09-09T01:54:05;15.40;99.90
22065;DHT22;11197;53.110;8.468;2022-09-09T02:04:49;15.30;99.90
22065;DHT22;11197;53.110;8.468;2022-09-09T02:10:28;15.30;99.90
22065;DHT22;11197;53.110;8.468;2022-09-09T02:13:11;15.30;99.90
22065;DHT22;11197;53.110;8.468;2022-09-09T02:15:45;15.30;99.90
22065;DHT22;11197;53.110;8.468;2022-09-09T02:18:15;15.20;99.90
22065;DHT22;11197;53.110;8.468;2022-09-09T02:20:46;15.30;99.90
22065;DHT22;11197;53.110;8.468;2022-09-09T02:23:14;15.20;99.90
22065;DHT22;11197;53.110;8.468;2022-09-09T02:25:43;15.20;99.90
22065;DHT22;11197;53.110;8.468;2022-09-09T02:28:20;15.20;99.90
22065;DHT22;11197;53.110;8.468;2022-09-09T02:30:49;15.20;99.90
22065;DHT22;11197;53.110;8.468;2022-09-09T02:33:19;15.20;99.90
22065;DHT22;11197;53.110;8.468;2022-09-09T02:35:50;15.10;99.90
22065;DHT22;11197;53.110;8.468;2022-09-09T02:38:21;15.10;99.90
22065;DHT22;11197;53.110;8.468;2022-09-09T02:40:58;15.10;99.90
22065;DHT22;11197;53.110;8.468;2022-09-09T02:43:24;15.10;99.90
22065;DHT22;11197;53.110;8.468;2022-09-09T02:51:22;15.10;99.90
22065;DHT22;11197;53.110;8.468;2022-09-09T02:54:10;15.10;99.90
22065;DHT22;11197;53.110;8.468;2022-09-09T02:56:48;15.00;99.90
22065;DHT22;11197;53.110;8.468;2022-09-09T02:59:16;15.00;99.90
22065;DHT22;11197;53.110;8.468;2022-09-09T03:01:44;15.00;99.90
22065;DHT22;11197;53.110;8.468;2022-09-09T03:04:10;15.00;99.90
22065;DHT22;11197;53.110;8.468;2022-09-09T03:06:38;15.00;99.90
22065;DHT22;11197;53.110;8.468;2022-09-09T03:09:14;14.90;99.90
22065;DHT22;11197;53.110;8.468;2022-09-09T03:11:40;14.90;99.90
22065;DHT22;11197;53.110;8.468;2022-09-09T03:14:07;14.90;99.90
22065;DHT22;11197;53.110;8.468;2022-09-09T03:16:35;15.00;99.90
22065;DHT22;11197;53.110;8.468;2022-09-09T03:19:01;15.00;99.90
22065;DHT22;11197;53.110;8.468;2022-09-09T03:21:30;14.90;99.90
22065;DHT22;11197;53.110;8.468;2022-09-09T03:23:56;14.90;99.90
22065;DHT22;11197;53.110;8.468;2022-09-09T03:26:23;14.90;99.90
22065;DHT22;11197;53.110;8.468;2022-09-09T03:28:49;14.90;99.90
22065;DHT22;11197;53.110;8.468;2022-09-09T03:31:17;14.90;99.90
22065;DHT22;11197;53.110;8.468;2022-09-09T03:33:45;14.90;99.90
22065;DHT22;11197;53.110;8.468;2022-09-09T03:36:13;14.90;99.90
22065;DHT22;11197;53.110;8.468;2022-09-09T03:38:39;14.90;99.90
22065;DHT22;11197;53.110;8.468;2022-09-09T03:41:06;14.90;99.90
22065;DHT22;11197;53.110;8.468;2022-09-09T03:43:33;14.90;99.90
22065;DHT22;11197;53.110;8.468;2022-09-09T03:46:00;14.90;99.90
22065;DHT22;11197;53.110;8.468;2022-09-09T03:48:27;14.90;99.90
22065;DHT22;11197;53.110;8.468;2022-09-09T03:50:56;14.90;99.90
22065;DHT22;11197;53.110;8.468;2022-09-09T03:53:24;14.90;99.90
22065;DHT22;11197;53.110;8.468;2022-09-09T03:55:53;14.90;99.90
22065;DHT22;11197;53.110;8.468;2022-09-09T03:58:23;14.90;99.90
22065;DHT22;11197;53.110;8.468;2022-09-09T04:00:59;14.90;99.90
22065;DHT22;11197;53.110;8.468;2022-09-09T04:03:27;14.90;99.90
22065;DHT22;11197;53.110;8.468;2022-09-09T04:05:53;14.90;99.90
22065;DHT22;11197;53.110;8.468;2022-09-09T04:08:21;14.90;99.90
22065;DHT22;11197;53.110;8.468;2022-09-09T04:10:49;14.90;99.90
22065;DHT22;11197;53.110;8.468;2022-09-09T04:13:16;14.90;99.90
22065;DHT22;11197;53.110;8.468;2022-09-09T04:15:49;14.90;99.90
22065;DHT22;11197;53.110;8.468;2022-09-09T04:18:16;14.90;99.90
22065;DHT22;11197;53.110;8.468;2022-09-09T04:20:41;14.90;99.90
22065;DHT22;11197;53.110;8.468;2022-09-09T04:23:09;14.90;99.90
22065;DHT22;11197;53.110;8.468;2022-09-09T04:25:35;15.00;99.90
22065;DHT22;11197;53.110;8.468;2022-09-09T04:28:01;14.90;99.90
22065;DHT22;11197;53.110;8.468;2022-09-09T04:30:28;14.90;99.90
22065;DHT22;11197;53.110;8.468;2022-09-09T04:32:54;14.90;99.90
22065;DHT22;11197;53.110;8.468;2022-09-09T04:35:21;14.90;99.90
22065;DHT22;11197;53.110;8.468;2022-09-09T04:37:47;14.90;99.90
22065;DHT22;11197;53.110;8.468;2022-09-09T04:40:14;14.90;99.90
22065;DHT22;11197;53.110;8.468;2022-09-09T04:42:41;14.90;99.90
22065;DHT22;11197;53.110;8.468;2022-09-09T04:45:11;14.90;99.90
22065;DHT22;11197;53.110;8.468;2022-09-09T04:47:40;14.90;99.90
22065;DHT22;11197;53.110;8.468;2022-09-09T04:50:07;14.80;99.90
22065;DHT22;11197;53.110;8.468;2022-09-09T04:52:35;14.90;99.90
22065;DHT22;11197;53.110;8.468;2022-09-09T04:55:02;14.90;99.90
22065;DHT22;11197;53.110;8.468;2022-09-09T04:57:28;14.90;99.90
22065;DHT22;11197;53.110;8.468;2022-09-09T04:59:54;14.90;99.90
22065;DHT22;11197;53.110;8.468;2022-09-09T05:02:20;14.90;99.90
22065;DHT22;11197;53.110;8.468;2022-09-09T05:04:46;14.80;99.90
22065;DHT22;11197;53.110;8.468;2022-09-09T05:07:13;14.90;99.90
22065;DHT22;11197;53.110;8.468;2022-09-09T05:09:40;14.80;99.90
22065;DHT22;11197;53.110;8.468;2022-09-09T05:12:06;14.80;99.90
22065;DHT22;11197;53.110;8.468;2022-09-09T05:14:35;14.80;99.90
22065;DHT22;11197;53.110;8.468;2022-09-09T05:17:04;14.80;99.90
22065;DHT22;11197;53.110;8.468;2022-09-09T05:19:31;14.80;99.90
22065;DHT22;11197;53.110;8.468;2022-09-09T05:21:57;14.80;99.90
22065;DHT22;11197;53.110;8.468;2022-09-09T05:24:30;14.70;99.90
22065;DHT22;11197;53.110;8.468;2022-09-09T05:26:59;14.70;99.90
22065;DHT22;11197;53.110;8.468;2022-09-09T05:29:28;14.70;99.90
22065;DHT22;11197;53.110;8.468;2022-09-09T05:31:55;14.70;99.90
22065;DHT22;11197;53.110;8.468;2022-09-09T05:34:21;14.70;99.90
22065;DHT22;11197;53.110;8.468;2022-09-09T05:36:49;14.80;99.90
22065;DHT22;11197;53.110;8.468;2022-09-09T05:39:15;14.80;99.90
22065;DHT22;11197;53.110;8.468;2022-09-09T05:41:41;14.80;99.90
22065;DHT22;11197;53.110;8.468;2022-09-09T05:44:08;14.80;99.90
22065;DHT22;11197;53.110;8.468;2022-09-09T05:46:38;14.80;99.90
22065;DHT22;11197;53.110;8.468;2022-09-09T05:49:05;14.80;99.90
22065;DHT22;11197;53.110;8.468;2022-09-09T05:51:32;14.80;99.90
22065;DHT22;11197;53.110;8.468;2022-09-09T05:54:03;14.80;99.90
22065;DHT22;11197;53.110;8.468;2022-09-09T05:56:33;14.90;99.90
22065;DHT22;11197;53.110;8.468;2022-09-09T05:59:00;14.80;99.90
22065;DHT22;11197;53.110;8.468;2022-09-09T06:01:32;14.90;99.90
22065;DHT22;11197;53.110;8.468;2022-09-09T06:04:00;14.90;99.90
22065;DHT22;11197;53.110;8.468;2022-09-09T06:06:32;14.90;99.90
22065;DHT22;11197;53.110;8.468;2022-09-09T06:09:04;14.90;99.90
22065;DHT22;11197;53.110;8.468;2022-09-09T06:11:36;14.90;99.90
22065;DHT22;11197;53.110;8.468;2022-09-09T06:14:03;14.90;99.90
22065;DHT22;11197;53.110;8.468;2022-09-09T06:16:32;14.90;99.90
22065;DHT22;11197;53.110;8.468;2022-09-09T06:18:59;14.90;99.90
22065;DHT22;11197;53.110;8.468;2022-09-09T06:21:32;14.90;99.90
22065;DHT22;11197;53.110;8.468;2022-09-09T06:24:00;14.90;99.90
22065;DHT22;11197;53.110;8.468;2022-09-09T06:26:35;14.90;99.90
22065;DHT22;11197;53.110;8.468;2022-09-09T06:29:03;15.00;99.90
22065;DHT22;11197;53.110;8.468;2022-09-09T06:31:32;15.00;99.90
22065;DHT22;11197;53.110;8.468;2022-09-09T06:34:06;15.00;99.90
22065;DHT22;11197;53.110;8.468;2022-09-09T06:36:36;15.00;99.90
22065;DHT22;11197;53.110;8.468;2022-09-09T06:39:03;15.00;99.90
22065;DHT22;11197;53.110;8.468;2022-09-09T06:41:32;15.00;99.90
22065;DHT22;11197;53.110;8.468;2022-09-09T06:44:00;15.00;99.90
22065;DHT22;11197;53.110;8.468;2022-09-09T06:46:37;15.10;99.90
22065;DHT22;11197;53.110;8.468;2022-09-09T06:49:04;15.10;99.90
22065;DHT22;11197;53.110;8.468;2022-09-09T06:51:33;15.20;99.90
22065;DHT22;11197;53.110;8.468;2022-09-09T06:54:03;15.20;99.90
22065;DHT22;11197;53.110;8.468;2022-09-09T06:56:32;15.30;99.90
22065;DHT22;11197;53.110;8.468;2022-09-09T06:59:03;15.30;99.90
22065;DHT22;11197;53.110;8.468;2022-09-09T07:01:32;15.40;99.90
22065;DHT22;11197;53.110;8.468;2022-09-09T07:04:01;15.50;99.90
22065;DHT22;11197;53.110;8.468;2022-09-09T07:06:36;15.50;99.90
22065;DHT22;11197;53.110;8.468;2022-09-09T07:09:05;15.50;99.90
22065;DHT22;11197;53.110;8.468;2022-09-09T07:11:40;15.60;99.90
22065;DHT22;11197;53.110;8.468;2022-09-09T07:14:11;15.70;99.90
22065;DHT22;11197;53.110;8.468;2022-09-09T07:16:41;15.70;99.90
22065;DHT22;11197;53.110;8.468;2022-09-09T07:19:07;15.80;99.90
22065;DHT22;11197;53.110;8.468;2022-09-09T07:21:33;15.80;99.90
22065;DHT22;11197;53.110;8.468;2022-09-09T07:24:00;15.80;99.90
22065;DHT22;11197;53.110;8.468;2022-09-09T07:26:29;15.90;99.90
22065;DHT22;11197;53.110;8.468;2022-09-09T07:28:57;16.00;99.90
22065;DHT22;11197;53.110;8.468;2022-09-09T07:31:28;16.10;99.90
22065;DHT22;11197;53.110;8.468;2022-09-09T07:33:57;16.10;99.90
22065;DHT22;11197;53.110;8.468;2022-09-09T07:36:27;16.20;99.90
22065;DHT22;11197;53.110;8.468;2022-09-09T07:39:02;16.30;99.90
22065;DHT22;11197;53.110;8.468;2022-09-09T07:44:08;16.40;99.90
22065;DHT22;11197;53.110;8.468;2022-09-09T07:46:36;16.40;99.90
22065;DHT22;11197;53.110;8.468;2022-09-09T07:49:03;16.50;99.90
22065;DHT22;11197;53.110;8.468;2022-09-09T07:51:33;16.60;99.90
22065;DHT22;11197;53.110;8.468;2022-09-09T07:54:03;16.60;99.90
22065;DHT22;11197;53.110;8.468;2022-09-09T07:56:32;16.70;99.90
22065;DHT22;11197;53.110;8.468;2022-09-09T07:58:59;16.70;99.90
22065;DHT22;11197;53.110;8.468;2022-09-09T08:01:28;16.80;99.90
22065;DHT22;11197;53.110;8.468;2022-09-09T08:04:00;16.80;99.90
22065;DHT22;11197;53.110;8.468;2022-09-09T08:06:29;16.90;99.90
22065;DHT22;11197;53.110;8.468;2022-09-09T08:08:56;16.90;99.90
22065;DHT22;11197;53.110;8.468;2022-09-09T08:11:24;16.90;99.90
22065;DHT22;11197;53.110;8.468;2022-09-09T08:13:51;17.00;99.90
22065;DHT22;11197;53.110;8.468;2022-09-09T08:16:19;17.00;99.90
22065;DHT22;11197;53.110;8.468;2022-09-09T08:18:50;17.10;99.90
22065;DHT22;11197;53.110;8.468;2022-09-09T08:21:20;17.10;99.90
22065;DHT22;11197;53.110;8.468;2022-09-09T08:23:47;17.10;99.90
22065;DHT22;11197;53.110;8.468;2022-09-09T08:26:17;17.10;99.90
22065;DHT22;11197;53.110;8.468;2022-09-09T08:28:49;17.20;99.90
22065;DHT22;11197;53.110;8.468;2022-09-09T08:31:22;17.30;99.90
22065;DHT22;11197;53.110;8.468;2022-09-09T08:33:50;17.30;99.90
22065;DHT22;11197;53.110;8.468;2022-09-09T08:36:21;17.30;99.90
22065;DHT22;11197;53.110;8.468;2022-09-09T08:38:53;17.40;99.90
22065;DHT22;11197;53.110;8.468;2022-09-09T08:47:22;17.40;99.90
22065;DHT22;11197;53.110;8.468;2022-09-09T08:55:56;17.50;99.90
22065;DHT22;11197;53.110;8.468;2022-09-09T08:58:52;17.60;99.90
22065;DHT22;11197;53.110;8.468;2022-09-09T09:04:37;17.60;99.90
22065;DHT22;11197;53.110;8.468;2022-09-09T09:12:38;17.70;99.90
22065;DHT22;11197;53.110;8.468;2022-09-09T09:15:16;17.80;99.90
22065;DHT22;11197;53.110;8.468;2022-09-09T09:17:44;17.90;99.90
22065;DHT22;11197;53.110;8.468;2022-09-09T09:20:20;18.00;99.90
22065;DHT22;11197;53.110;8.468;2022-09-09T09:22:51;18.00;99.90
22065;DHT22;11197;53.110;8.468;2022-09-09T09:25:21;18.20;99.90
22065;DHT22;11197;53.110;8.468;2022-09-09T09:30:42;18.30;99.90
22065;DHT22;11197;53.110;8.468;2022-09-09T09:36:08;18.40;99.90
22065;DHT22;11197;53.110;8.468;2022-09-09T09:38:36;18.50;99.90
22065;DHT22;11197;53.110;8.468;2022-09-09T09:41:03;18.60;99.90
22065;DHT22;11197;53.110;8.468;2022-09-09T09:43:37;18.70;99.90
22065;DHT22;11197;53.110;8.468;2022-09-09T09:46:24;18.80;99.90
22065;DHT22;11197;53.110;8.468;2022-09-09T09:49:04;18.90;99.90
22065;DHT22;11197;53.110;8.468;2022-09-09T09:51:32;18.90;99.90
22065;DHT22;11197;53.110;8.468;2022-09-09T09:56:39;18.80;99.90
22065;DHT22;11197;53.110;8.468;2022-09-09T09:59:37;18.90;99.90
22065;DHT22;11197;53.110;8.468;2022-09-09T10:02:24;19.00;99.90
22065;DHT22;11197;53.110;8.468;2022-09-09T10:05:18;19.00;99.90
22065;DHT22;11197;53.110;8.468;2022-09-09T10:19:31;19.20;99.90
22065;DHT22;11197;53.110;8.468;2022-09-09T10:38:13;19.40;99.90
22065;DHT22;11197;53.110;8.468;2022-09-09T10:40:42;19.50;99.90
22065;DHT22;11197;53.110;8.468;2022-09-09T10:56:54;19.40;99.90
22065;DHT22;11197;53.110;8.468;2022-09-09T10:59:36;19.40;99.90
22065;DHT22;11197;53.110;8.468;2022-09-09T11:02:13;19.40;99.90
22065;DHT22;11197;53.110;8.468;2022-09-09T11:04:45;19.30;99.90
22065;DHT22;11197;53.110;8.468;2022-09-09T11:07:23;19.30;99.90
22065;DHT22;11197;53.110;8.468;2022-09-09T11:09:54;19.20;99.90
22065;DHT22;11197;53.110;8.468;2022-09-09T11:12:24;19.30;99.90
22065;DHT22;11197;53.110;8.468;2022-09-09T11:15:01;19.40;99.90
22065;DHT22;11197;53.110;8.468;2022-09-09T11:17:52;19.50;99.90
22065;DHT22;11197;53.110;8.468;2022-09-09T11:20:20;19.60;99.90
22065;DHT22;11197;53.110;8.468;2022-09-09T11:23:42;19.70;99.90
22065;DHT22;11197;53.110;8.468;2022-09-09T11:25:53;19.90;99.90
22065;DHT22;11197;53.110;8.468;2022-09-09T11:39:35;20.20;99.90
22065;DHT22;11197;53.110;8.468;2022-09-09T11:44:41;20.20;99.90
22065;DHT22;11197;53.110;8.468;2022-09-09T11:47:24;20.10;99.90
22065;DHT22;11197;53.110;8.468;2022-09-09T11:49:52;20.10;99.90
22065;DHT22;11197;53.110;8.468;2022-09-09T11:52:21;20.10;99.90
22065;DHT22;11197;53.110;8.468;2022-09-09T11:54:51;20.10;99.90
22065;DHT22;11197;53.110;8.468;2022-09-09T11:57:33;20.00;99.90
22065;DHT22;11197;53.110;8.468;2022-09-09T12:00:00;20.00;99.90
22065;DHT22;11197;53.110;8.468;2022-09-09T12:02:48;20.00;99.90
22065;DHT22;11197;53.110;8.468;2022-09-09T12:05:15;20.00;99.90
22065;DHT22;11197;53.110;8.468;2022-09-09T12:07:59;20.00;99.90
22065;DHT22;11197;53.110;8.468;2022-09-09T12:10:35;20.00;99.90
22065;DHT22;11197;53.110;8.468;2022-09-09T12:15:51;20.00;99.90
22065;DHT22;11197;53.110;8.468;2022-09-09T12:18:34;19.90;99.90
22065;DHT22;11197;53.110;8.468;2022-09-09T12:23:55;19.90;99.90
22065;DHT22;11197;53.110;8.468;2022-09-09T12:34:41;19.80;99.90
22065;DHT22;11197;53.110;8.468;2022-09-09T12:40:25;19.80;99.90
22065;DHT22;11197;53.110;8.468;2022-09-09T12:42:52;19.80;99.90
22065;DHT22;11197;53.110;8.468;2022-09-09T12:45:22;19.80;99.90
22065;DHT22;11197;53.110;8.468;2022-09-09T12:48:09;19.80;99.90
22065;DHT22;11197;53.110;8.468;2022-09-09T12:50:51;19.70;99.90
22065;DHT22;11197;53.110;8.468;2022-09-09T12:53:29;19.70;99.90
22065;DHT22;11197;53.110;8.468;2022-09-09T12:55:57;19.70;99.90
22065;DHT22;11197;53.110;8.468;2022-09-09T12:58:23;19.70;99.90
22065;DHT22;11197;53.110;8.468;2022-09-09T13:00:52;19.70;99.90
22065;DHT22;11197;53.110;8.468;2022-09-09T13:03:22;19.70;99.90
22065;DHT22;11197;53.110;8.468;2022-09-09T13:05:49;19.70;99.90
22065;DHT22;11197;53.110;8.468;2022-09-09T13:08:16;19.70;99.90
22065;DHT22;11197;53.110;8.468;2022-09-09T13:11:02;19.60;99.90
22065;DHT22;11197;53.110;8.468;2022-09-09T13:13:32;19.50;99.90
22065;DHT22;11197;53.110;8.468;2022-09-09T13:16:01;19.50;99.90
22065;DHT22;11197;53.110;8.468;2022-09-09T13:28:42;19.20;99.90
22065;DHT22;11197;53.110;8.468;2022-09-09T13:31:24;19.10;99.90
22065;DHT22;11197;53.110;8.468;2022-09-09T13:33:50;19.00;99.90
22065;DHT22;11197;53.110;8.468;2022-09-09T13:36:31;19.00;99.90
22065;DHT22;11197;53.110;8.468;2022-09-09T13:38:59;18.90;99.90
22065;DHT22;11197;53.110;8.468;2022-09-09T13:41:31;18.90;99.90
22065;DHT22;11197;53.110;8.468;2022-09-09T13:43:58;18.80;99.90
22065;DHT22;11197;53.110;8.468;2022-09-09T13:50:30;18.70;99.90
22065;DHT22;11197;53.110;8.468;2022-09-09T13:52:59;18.60;99.90
22065;DHT22;11197;53.110;8.468;2022-09-09T13:55:27;18.60;99.90
22065;DHT22;11197;53.110;8.468;2022-09-09T13:58:01;18.60;99.90
22065;DHT22;11197;53.110;8.468;2022-09-09T14:00:30;18.50;99.90
22065;DHT22;11197;53.110;8.468;2022-09-09T14:02:57;18.50;99.90
22065;DHT22;11197;53.110;8.468;2022-09-09T14:05:23;18.40;99.90
22065;DHT22;11197;53.110;8.468;2022-09-09T14:07:50;18.40;99.90
22065;DHT22;11197;53.110;8.468;2022-09-09T14:10:16;18.40;99.90
22065;DHT22;11197;53.110;8.468;2022-09-09T14:12:43;18.40;99.90
22065;DHT22;11197;53.110;8.468;2022-09-09T14:15:11;18.30;99.90
22065;DHT22;11197;53.110;8.468;2022-09-09T14:17:37;18.30;99.90
22065;DHT22;11197;53.110;8.468;2022-09-09T14:20:06;18.20;99.90
22065;DHT22;11197;53.110;8.468;2022-09-09T14:22:33;18.20;99.90
22065;DHT22;11197;53.110;8.468;2022-09-09T14:24:59;18.20;99.90
22065;DHT22;11197;53.110;8.468;2022-09-09T14:27:25;18.10;99.90
22065;DHT22;11197;53.110;8.468;2022-09-09T14:29:52;18.20;99.90
22065;DHT22;11197;53.110;8.468;2022-09-09T14:32:18;18.10;99.90
22065;DHT22;11197;53.110;8.468;2022-09-09T14:34:45;18.10;99.90
22065;DHT22;11197;53.110;8.468;2022-09-09T14:37:11;18.20;99.90
22065;DHT22;11197;53.110;8.468;2022-09-09T14:39:37;18.20;99.90
22065;DHT22;11197;53.110;8.468;2022-09-09T14:42:03;18.10;99.90
22065;DHT22;11197;53.110;8.468;2022-09-09T14:44:30;18.10;99.90
22065;DHT22;11197;53.110;8.468;2022-09-09T14:46:56;18.10;99.90
22065;DHT22;11197;53.110;8.468;2022-09-09T14:49:22;18.10;99.90
22065;DHT22;11197;53.110;8.468;2022-09-09T14:51:48;18.10;99.90
22065;DHT22;11197;53.110;8.468;2022-09-09T14:54:14;18.00;99.90
22065;DHT22;11197;53.110;8.468;2022-09-09T14:56:40;18.00;99.90
22065;DHT22;11197;53.110;8.468;2022-09-09T14:59:06;18.00;99.90
22065;DHT22;11197;53.110;8.468;2022-09-09T15:01:32;18.00;99.90
22065;DHT22;11197;53.110;8.468;2022-09-09T15:04:01;17.90;99.90
22065;DHT22;11197;53.110;8.468;2022-09-09T15:06:30;17.90;99.90
22065;DHT22;11197;53.110;8.468;2022-09-09T15:08:57;17.90;99.90
22065;DHT22;11197;53.110;8.468;2022-09-09T15:11:26;17.90;99.90
22065;DHT22;11197;53.110;8.468;2022-09-09T15:13:53;17.90;99.90
22065;DHT22;11197;53.110;8.468;2022-09-09T15:16:21;17.90;99.90
22065;DHT22;11197;53.110;8.468;2022-09-09T15:18:51;17.80;99.90
22065;DHT22;11197;53.110;8.468;2022-09-09T15:21:20;17.80;99.90
22065;DHT22;11197;53.110;8.468;2022-09-09T15:23:47;17.80;99.90
22065;DHT22;11197;53.110;8.468;2022-09-09T15:26:13;17.80;99.90
22065;DHT22;11197;53.110;8.468;2022-09-09T15:28:40;17.80;99.90
22065;DHT22;11197;53.110;8.468;2022-09-09T15:31:11;17.80;99.90
22065;DHT22;11197;53.110;8.468;2022-09-09T15:33:38;17.80;99.90
22065;DHT22;11197;53.110;8.468;2022-09-09T15:36:24;17.90;99.90
22065;DHT22;11197;53.110;8.468;2022-09-09T15:38:52;17.90;99.90
22065;DHT22;11197;53.110;8.468;2022-09-09T15:41:20;17.90;99.90
22065;DHT22;11197;53.110;8.468;2022-09-09T15:43:52;17.90;99.90
22065;DHT22;11197;53.110;8.468;2022-09-09T15:48:58;17.90;99.90
22065;DHT22;11197;53.110;8.468;2022-09-09T15:51:29;17.90;99.90
22065;DHT22;11197;53.110;8.468;2022-09-09T15:53:57;17.90;99.90
22065;DHT22;11197;53.110;8.468;2022-09-09T15:56:24;18.00;99.90
22065;DHT22;11197;53.110;8.468;2022-09-09T15:58:51;18.00;99.90
22065;DHT22;11197;53.110;8.468;2022-09-09T16:01:17;18.00;99.90
22065;DHT22;11197;53.110;8.468;2022-09-09T16:03:46;18.00;99.90
22065;DHT22;11197;53.110;8.468;2022-09-09T16:06:14;18.00;99.90
22065;DHT22;11197;53.110;8.468;2022-09-09T16:08:43;18.00;99.90
22065;DHT22;11197;53.110;8.468;2022-09-09T16:11:11;18.00;99.90
22065;DHT22;11197;53.110;8.468;2022-09-09T16:13:41;18.00;99.90
22065;DHT22;11197;53.110;8.468;2022-09-09T16:16:08;18.00;99.90
22065;DHT22;11197;53.110;8.468;2022-09-09T16:18:40;18.00;99.90
22065;DHT22;11197;53.110;8.468;2022-09-09T16:21:07;18.00;99.90
22065;DHT22;11197;53.110;8.468;2022-09-09T16:23:34;18.10;99.90
22065;DHT22;11197;53.110;8.468;2022-09-09T16:26:01;18.00;99.90
22065;DHT22;11197;53.110;8.468;2022-09-09T16:28:27;18.10;99.90
22065;DHT22;11197;53.110;8.468;2022-09-09T16:30:54;18.10;99.90
22065;DHT22;11197;53.110;8.468;2022-09-09T16:33:20;18.10;99.90
22065;DHT22;11197;53.110;8.468;2022-09-09T16:35:47;18.10;99.90
22065;DHT22;11197;53.110;8.468;2022-09-09T16:38:15;18.10;99.90
22065;DHT22;11197;53.110;8.468;2022-09-09T16:40:41;18.00;99.90
22065;DHT22;11197;53.110;8.468;2022-09-09T16:43:07;18.10;99.90
22065;DHT22;11197;53.110;8.468;2022-09-09T16:45:45;18.10;99.90
22065;DHT22;11197;53.110;8.468;2022-09-09T16:48:11;18.10;99.90
22065;DHT22;11197;53.110;8.468;2022-09-09T16:50:38;18.10;99.90
22065;DHT22;11197;53.110;8.468;2022-09-09T16:53:05;18.00;99.90
22065;DHT22;11197;53.110;8.468;2022-09-09T16:55:39;18.10;99.90
22065;DHT22;11197;53.110;8.468;2022-09-09T16:58:05;18.10;99.90
22065;DHT22;11197;53.110;8.468;2022-09-09T17:00:32;18.10;99.90
22065;DHT22;11197;53.110;8.468;2022-09-09T17:02:59;18.00;99.90
22065;DHT22;11197;53.110;8.468;2022-09-09T17:05:25;18.00;99.90
22065;DHT22;11197;53.110;8.468;2022-09-09T17:07:51;18.00;99.90
22065;DHT22;11197;53.110;8.468;2022-09-09T17:10:21;17.90;99.90
22065;DHT22;11197;53.110;8.468;2022-09-09T17:12:50;17.90;99.90
22065;DHT22;11197;53.110;8.468;2022-09-09T17:15:16;17.80;99.90
22065;DHT22;11197;53.110;8.468;2022-09-09T17:17:44;17.80;99.90
22065;DHT22;11197;53.110;8.468;2022-09-09T17:20:11;17.70;99.90
22065;DHT22;11197;53.110;8.468;2022-09-09T17:22:37;17.70;99.90
22065;DHT22;11197;53.110;8.468;2022-09-09T17:25:04;17.60;99.90
22065;DHT22;11197;53.110;8.468;2022-09-09T17:27:31;17.60;99.90
22065;DHT22;11197;53.110;8.468;2022-09-09T17:30:00;17.60;99.90
22065;DHT22;11197;53.110;8.468;2022-09-09T17:32:25;17.50;99.90
22065;DHT22;11197;53.110;8.468;2022-09-09T17:34:51;17.50;99.90
22065;DHT22;11197;53.110;8.468;2022-09-09T17:37:18;17.50;99.90
22065;DHT22;11197;53.110;8.468;2022-09-09T17:39:44;17.50;99.90
22065;DHT22;11197;53.110;8.468;2022-09-09T17:42:10;17.50;99.90
22065;DHT22;11197;53.110;8.468;2022-09-09T17:44:36;17.50;99.90
22065;DHT22;11197;53.110;8.468;2022-09-09T17:47:02;17.50;99.90
22065;DHT22;11197;53.110;8.468;2022-09-09T17:49:29;17.50;99.90
22065;DHT22;11197;53.110;8.468;2022-09-09T17:51:55;17.50;99.90
22065;DHT22;11197;53.110;8.468;2022-09-09T17:54:22;17.50;99.90
22065;DHT22;11197;53.110;8.468;2022-09-09T17:56:48;17.50;99.90
22065;DHT22;11197;53.110;8.468;2022-09-09T17:59:17;17.40;99.90
22065;DHT22;11197;53.110;8.468;2022-09-09T18:01:46;17.40;99.90
22065;DHT22;11197;53.110;8.468;2022-09-09T18:04:14;17.40;99.90
22065;DHT22;11197;53.110;8.468;2022-09-09T18:06:46;17.40;99.90
22065;DHT22;11197;53.110;8.468;2022-09-09T18:09:18;17.40;99.90
22065;DHT22;11197;53.110;8.468;2022-09-09T18:11:49;17.30;99.90
22065;DHT22;11197;53.110;8.468;2022-09-09T18:14:18;17.30;99.90
22065;DHT22;11197;53.110;8.468;2022-09-09T18:16:45;17.20;99.90
22065;DHT22;11197;53.110;8.468;2022-09-09T18:19:13;17.20;99.90
22065;DHT22;11197;53.110;8.468;2022-09-09T18:21:41;17.20;99.90
22065;DHT22;11197;53.110;8.468;2022-09-09T18:24:08;17.10;99.90
22065;DHT22;11197;53.110;8.468;2022-09-09T18:26:36;17.20;99.90
22065;DHT22;11197;53.110;8.468;2022-09-09T18:29:09;17.10;99.90
22065;DHT22;11197;53.110;8.468;2022-09-09T18:31:37;17.10;99.90
22065;DHT22;11197;53.110;8.468;2022-09-09T18:34:05;17.00;99.90
22065;DHT22;11197;53.110;8.468;2022-09-09T18:36:35;17.00;99.90
22065;DHT22;11197;53.110;8.468;2022-09-09T18:39:02;17.00;99.90
22065;DHT22;11197;53.110;8.468;2022-09-09T18:41:33;17.00;99.90
22065;DHT22;11197;53.110;8.468;2022-09-09T18:44:02;16.90;99.90
22065;DHT22;11197;53.110;8.468;2022-09-09T18:46:32;16.90;99.90